createdAt,value
2018-09-14T00:00:39.317Z,11.20
2018-09-14T00:03:13.881Z,11.17
2018-09-14T00:05:48.784Z,11.23
2018-09-14T00:08:23.316Z,11.32
2018-09-14T00:10:57.813Z,11.33
2018-09-14T00:13:32.475Z,11.33
2018-09-14T00:16:07.084Z,11.23
2018-09-14T00:18:41.645Z,11.19
2018-09-14T00:21:16.300Z,11.08
2018-09-14T00:23:50.853Z,11.13
2018-09-14T00:26:25.697Z,11.09
2018-09-14T00:29:00.555Z,11.04
2018-09-14T00:31:35.157Z,10.99
2018-09-14T00:34:09.923Z,10.95
2018-09-14T00:36:44.579Z,10.87
2018-09-14T00:39:19.041Z,10.81
2018-09-14T00:41:53.988Z,10.95
2018-09-14T00:44:28.654Z,11.02
2018-09-14T00:47:03.233Z,11.03
2018-09-14T00:49:38.337Z,11.04
2018-09-14T00:52:13.109Z,11.05
2018-09-14T00:54:47.679Z,11.00
2018-09-14T00:57:22.123Z,10.97
2018-09-14T00:59:56.703Z,10.94
2018-09-14T01:02:31.289Z,10.85
2018-09-14T01:05:05.925Z,10.82
2018-09-14T01:07:41.065Z,10.82
2018-09-14T01:10:15.704Z,10.80
2018-09-14T01:12:50.096Z,10.71
2018-09-14T01:15:24.589Z,10.66
2018-09-14T01:17:59.285Z,10.63
2018-09-14T01:20:35.018Z,10.55
2018-09-14T01:23:09.556Z,10.51
2018-09-14T01:25:43.899Z,10.52
2018-09-14T01:28:18.384Z,10.50
2018-09-14T01:30:52.989Z,10.39
2018-09-14T01:33:27.656Z,10.34
2018-09-14T01:36:07.413Z,10.31
2018-09-14T01:38:42.457Z,10.31
2018-09-14T01:41:17.032Z,10.26
2018-09-14T01:43:51.481Z,10.25
2018-09-14T01:46:26.072Z,10.24
2018-09-14T01:49:00.580Z,10.21
2018-09-14T01:51:35.200Z,10.21
2018-09-14T01:54:09.685Z,10.33
2018-09-14T01:56:44.345Z,10.32
2018-09-14T01:59:22.179Z,10.37
2018-09-14T02:02:06.640Z,10.44
2018-09-14T02:07:40.828Z,10.45
2018-09-14T02:10:20.495Z,10.43
2018-09-14T02:12:55.093Z,10.42
2018-09-14T02:15:29.681Z,10.39
2018-09-14T02:18:04.004Z,10.30
2018-09-14T02:20:38.344Z,10.29
2018-09-14T02:23:12.837Z,10.22
2018-09-14T02:25:47.332Z,10.19
2018-09-14T02:28:21.860Z,10.22
2018-09-14T02:30:56.407Z,10.26
2018-09-14T02:33:30.928Z,10.25
2018-09-14T02:36:05.534Z,10.26
2018-09-14T02:38:40.094Z,10.37
2018-09-14T02:41:14.649Z,10.38
2018-09-14T02:43:49.281Z,10.41
2018-09-14T02:46:24.164Z,10.46
2018-09-14T02:48:58.863Z,10.52
2018-09-14T02:51:33.391Z,10.58
2018-09-14T02:54:08.473Z,10.60
2018-09-14T02:56:42.924Z,10.57
2018-09-14T02:59:17.511Z,10.53
2018-09-14T03:01:51.977Z,10.56
2018-09-14T03:04:26.573Z,10.60
2018-09-14T03:07:01.141Z,10.60
2018-09-14T03:09:36.512Z,10.58
2018-09-14T03:12:11.706Z,10.62
2018-09-14T03:14:46.260Z,10.69
2018-09-14T03:17:27.704Z,10.68
2018-09-14T03:20:02.224Z,10.70
2018-09-14T03:22:36.805Z,10.84
2018-09-14T03:25:11.496Z,10.82
2018-09-14T03:27:46.093Z,10.78
2018-09-14T03:30:20.457Z,10.79
2018-09-14T03:32:54.901Z,10.74
2018-09-14T03:35:29.448Z,10.77
2018-09-14T03:38:05.192Z,10.88
2018-09-14T03:40:39.765Z,10.91
2018-09-14T03:43:14.211Z,10.95
2018-09-14T03:45:48.725Z,10.94
2018-09-14T03:48:23.419Z,10.90
2018-09-14T03:50:57.972Z,10.89
2018-09-14T03:53:32.492Z,10.94
2018-09-14T03:56:07.054Z,11.03
2018-09-14T03:58:41.615Z,11.02
2018-09-14T04:01:16.289Z,10.86
2018-09-14T04:03:50.912Z,10.80
2018-09-14T04:06:25.573Z,10.79
2018-09-14T04:09:00.153Z,10.74
2018-09-14T04:11:34.816Z,10.65
2018-09-14T04:14:09.406Z,10.51
2018-09-14T04:16:44.177Z,10.53
2018-09-14T04:19:18.765Z,10.63
2018-09-14T04:21:53.479Z,10.67
2018-09-14T04:24:28.369Z,10.63
2018-09-14T04:27:03.099Z,10.60
2018-09-14T04:29:38.080Z,10.47
2018-09-14T04:32:12.850Z,10.14
2018-09-14T04:34:47.473Z,10.01
2018-09-14T04:37:21.963Z,9.86
2018-09-14T04:39:56.502Z,9.74
2018-09-14T04:42:31.125Z,9.64
2018-09-14T04:45:05.812Z,9.57
2018-09-14T04:47:40.510Z,9.51
2018-09-14T04:50:15.396Z,9.48
2018-09-14T04:52:49.945Z,9.41
2018-09-14T04:55:24.501Z,9.41
2018-09-14T04:57:59.055Z,9.55
2018-09-14T05:00:33.620Z,9.61
2018-09-14T05:03:08.168Z,9.54
2018-09-14T05:05:42.663Z,9.49
2018-09-14T05:08:17.144Z,9.45
2018-09-14T05:10:51.842Z,9.39
2018-09-14T05:13:26.369Z,9.37
2018-09-14T05:16:01.133Z,9.33
2018-09-14T05:18:35.672Z,9.31
2018-09-14T05:21:10.571Z,9.31
2018-09-14T05:23:45.602Z,9.42
2018-09-14T05:26:20.224Z,9.65
2018-09-14T05:28:54.792Z,9.86
2018-09-14T05:31:29.725Z,9.95
2018-09-14T05:34:04.363Z,9.93
2018-09-14T05:36:39.200Z,10.03
2018-09-14T05:39:13.828Z,10.20
2018-09-14T05:41:48.524Z,10.28
2018-09-14T05:44:23.172Z,10.38
2018-09-14T05:46:57.817Z,10.40
2018-09-14T05:49:32.517Z,10.50
2018-09-14T05:52:07.160Z,10.55
2018-09-14T05:54:41.640Z,10.57
2018-09-14T05:57:16.144Z,10.71
2018-09-14T05:59:50.752Z,10.82
2018-09-14T06:02:25.621Z,10.94
2018-09-14T06:05:00.375Z,11.76
2018-09-14T06:07:35.076Z,12.72
2018-09-14T06:10:09.859Z,12.68
2018-09-14T06:12:44.484Z,12.24
2018-09-14T06:15:19.015Z,11.93
2018-09-14T06:17:53.444Z,11.75
2018-09-14T06:20:28.040Z,11.67
2018-09-14T06:23:03.020Z,11.68
2018-09-14T06:25:37.597Z,11.82
2018-09-14T06:28:12.254Z,13.40
2018-09-14T06:30:46.909Z,14.42
2018-09-14T06:33:21.795Z,14.42
2018-09-14T06:35:56.320Z,14.07
2018-09-14T06:38:31.453Z,13.81
2018-09-14T06:41:06.076Z,13.52
2018-09-14T06:43:40.652Z,13.74
2018-09-14T06:46:15.199Z,13.80
2018-09-14T06:48:50.425Z,14.75
2018-09-14T06:51:24.959Z,17.45
2018-09-14T06:53:59.731Z,19.20
2018-09-14T06:56:34.672Z,21.69
2018-09-14T06:59:09.345Z,23.37
2018-09-14T07:01:44.325Z,22.84
2018-09-14T07:04:19.171Z,22.11
2018-09-14T07:06:53.828Z,24.13
2018-09-14T07:09:28.312Z,24.26
2018-09-14T07:12:02.899Z,26.86
2018-09-14T07:14:37.400Z,27.34
2018-09-14T07:17:11.933Z,26.42
2018-09-14T07:19:46.424Z,25.86
2018-09-14T07:22:21.014Z,26.28
2018-09-14T07:24:55.785Z,26.47
2018-09-14T07:27:30.016Z,24.09
2018-09-14T07:30:05.116Z,21.38
2018-09-14T07:32:39.623Z,20.61
2018-09-14T07:35:14.197Z,22.16
2018-09-14T07:37:48.833Z,21.88
2018-09-14T07:40:23.696Z,20.35
2018-09-14T07:42:58.217Z,19.72
2018-09-14T07:45:32.845Z,19.15
2018-09-14T07:48:07.544Z,19.18
2018-09-14T07:50:41.937Z,18.93
2018-09-14T07:53:16.568Z,19.11
2018-09-14T07:55:51.088Z,17.32
2018-09-14T07:58:25.620Z,18.24
2018-09-14T08:01:00.585Z,16.82
2018-09-14T08:03:35.067Z,16.48
2018-09-14T08:06:09.809Z,16.54
2018-09-14T08:08:44.339Z,16.71
2018-09-14T08:11:18.951Z,17.46
2018-09-14T08:13:56.842Z,16.58
2018-09-14T08:16:33.765Z,16.51
2018-09-14T08:19:08.718Z,16.99
2018-09-14T08:21:43.433Z,16.93
2018-09-14T08:24:17.870Z,16.97
2018-09-14T08:29:50.956Z,16.53
2018-09-14T08:32:25.403Z,16.34
2018-09-14T08:34:59.821Z,17.12
2018-09-14T08:37:34.396Z,16.84
2018-09-14T08:40:09.021Z,16.81
2018-09-14T08:42:43.500Z,17.05
2018-09-14T08:45:18.200Z,16.62
2018-09-14T08:47:52.875Z,17.09
2018-09-14T08:50:27.491Z,17.35
2018-09-14T08:53:02.146Z,17.39
2018-09-14T08:55:36.733Z,17.77
2018-09-14T08:58:11.448Z,17.06
2018-09-14T09:00:46.143Z,17.07
2018-09-14T09:03:20.798Z,18.51
2018-09-14T09:05:55.326Z,18.25
2018-09-14T09:08:29.860Z,19.47
2018-09-14T09:11:04.530Z,20.04
2018-09-14T09:13:38.977Z,20.35
2018-09-14T09:16:13.481Z,19.58
2018-09-14T09:18:48.137Z,18.75
2018-09-14T09:21:22.651Z,19.04
2018-09-14T09:23:57.236Z,18.43
2018-09-14T09:26:31.967Z,18.51
2018-09-14T09:29:06.515Z,17.80
2018-09-14T09:31:40.989Z,18.57
2018-09-14T09:34:15.552Z,18.99
2018-09-14T09:36:50.105Z,19.48
2018-09-14T09:39:24.585Z,19.32
2018-09-14T09:41:59.078Z,18.44
2018-09-14T09:44:33.788Z,17.97
2018-09-14T09:47:08.353Z,18.49
2018-09-14T09:49:42.932Z,18.22
2018-09-14T09:52:17.453Z,18.29
2018-09-14T09:54:52.109Z,18.38
2018-09-14T09:57:27.443Z,17.92
2018-09-14T10:00:02.084Z,18.73
2018-09-14T10:02:38.918Z,18.18
2018-09-14T10:05:19.099Z,18.57
2018-09-14T10:07:53.772Z,18.08
2018-09-14T10:10:28.591Z,18.12
2018-09-14T10:13:03.188Z,18.19
2018-09-14T10:15:37.855Z,18.07
2018-09-14T10:18:12.372Z,18.56
2018-09-14T10:20:47.012Z,18.20
2018-09-14T10:23:21.596Z,18.53
2018-09-14T10:25:56.265Z,18.72
2018-09-14T10:28:30.820Z,18.30
2018-09-14T10:31:05.629Z,18.78
2018-09-14T10:33:40.329Z,19.15
2018-09-14T10:36:15.529Z,18.97
2018-09-14T10:38:50.121Z,19.06
2018-09-14T10:41:24.664Z,18.87
2018-09-14T10:43:59.433Z,19.14
2018-09-14T10:46:34.073Z,18.79
2018-09-14T10:49:08.619Z,19.51
2018-09-14T10:51:43.380Z,19.65
2018-09-14T10:54:17.959Z,19.57
2018-09-14T10:56:52.600Z,19.37
2018-09-14T10:59:27.637Z,20.00
2018-09-14T11:02:02.234Z,19.43
2018-09-14T11:04:36.912Z,19.50
2018-09-14T11:07:11.512Z,19.17
2018-09-14T11:09:46.010Z,18.87
2018-09-14T11:12:20.577Z,18.91
2018-09-14T11:14:55.145Z,18.79
2018-09-14T11:17:29.688Z,18.47
2018-09-14T11:20:04.572Z,18.39
2018-09-14T11:22:39.172Z,17.97
2018-09-14T11:25:13.921Z,18.26
2018-09-14T11:27:48.481Z,19.26
2018-09-14T11:30:23.524Z,19.10
2018-09-14T11:32:58.268Z,19.12
2018-09-14T11:35:33.027Z,19.44
2018-09-14T11:38:07.488Z,19.55
2018-09-14T11:40:41.961Z,19.17
2018-09-14T11:43:16.450Z,19.23
2018-09-14T11:45:51.164Z,19.03
2018-09-14T11:48:25.778Z,19.33
2018-09-14T11:51:00.390Z,19.40
2018-09-14T11:53:35.007Z,19.28
2018-09-14T11:56:09.646Z,19.53
2018-09-14T11:58:44.115Z,19.28
2018-09-14T12:01:18.751Z,19.70
2018-09-14T12:03:53.660Z,19.44
2018-09-14T12:06:28.313Z,19.56
2018-09-14T12:09:02.871Z,19.83
2018-09-14T12:11:37.879Z,20.15
2018-09-14T12:14:12.450Z,20.26
2018-09-14T12:16:46.880Z,20.20
2018-09-14T12:19:21.616Z,20.02
2018-09-14T12:21:56.101Z,20.06
2018-09-14T12:24:31.064Z,19.83
2018-09-14T12:27:06.235Z,20.02
2018-09-14T12:29:41.561Z,19.68
2018-09-14T12:32:16.100Z,19.79
2018-09-14T12:34:51.229Z,19.84
2018-09-14T12:37:25.773Z,19.11
2018-09-14T12:40:00.385Z,19.31
2018-09-14T12:42:35.000Z,19.19
2018-09-14T12:45:09.618Z,19.36
2018-09-14T12:47:44.112Z,19.60
2018-09-14T12:50:18.851Z,19.37
2018-09-14T12:52:53.387Z,19.33
2018-09-14T12:55:27.978Z,19.22
2018-09-14T12:58:02.481Z,19.38
2018-09-14T13:00:37.142Z,19.17
2018-09-14T13:03:11.606Z,19.60
2018-09-14T13:05:46.211Z,19.54
2018-09-14T13:08:20.686Z,19.59
2018-09-14T13:10:55.468Z,19.83
2018-09-14T13:13:29.956Z,19.80
2018-09-14T13:16:04.952Z,19.93
2018-09-14T13:18:39.744Z,20.45
2018-09-14T13:21:14.191Z,19.96
2018-09-14T13:23:48.692Z,19.72
2018-09-14T13:26:23.301Z,20.14
2018-09-14T13:28:58.032Z,20.11
2018-09-14T13:31:32.677Z,20.28
2018-09-14T13:34:07.291Z,20.05
2018-09-14T13:36:41.952Z,19.83
2018-09-14T13:39:16.550Z,19.55
2018-09-14T13:41:51.496Z,19.58
2018-09-14T13:44:26.137Z,19.52
2018-09-14T13:47:01.113Z,19.44
2018-09-14T13:49:35.927Z,19.39
2018-09-14T13:52:10.423Z,19.39
2018-09-14T13:54:45.019Z,19.46
2018-09-14T13:57:19.633Z,19.55
2018-09-14T13:59:54.352Z,19.79
2018-09-14T14:02:28.901Z,19.87
2018-09-14T14:05:03.456Z,19.73
2018-09-14T14:07:37.996Z,19.98
2018-09-14T14:10:12.490Z,20.26
2018-09-14T14:12:47.173Z,20.36
2018-09-14T14:15:21.837Z,19.64
2018-09-14T14:17:56.511Z,19.78
2018-09-14T14:20:31.032Z,19.85
2018-09-14T14:23:22.730Z,19.88
2018-09-14T14:25:57.617Z,19.88
2018-09-14T14:28:44.805Z,20.39
2018-09-14T14:31:19.295Z,20.14
2018-09-14T14:33:53.815Z,20.48
2018-09-14T14:36:28.500Z,20.71
2018-09-14T14:39:03.494Z,20.18
2018-09-14T14:41:38.041Z,19.76
2018-09-14T14:44:12.482Z,19.60
2018-09-14T14:46:47.192Z,19.44
2018-09-14T14:49:21.836Z,19.17
2018-09-14T14:51:56.792Z,19.11
2018-09-14T14:54:32.296Z,19.90
2018-09-14T14:57:10.916Z,21.80
2018-09-14T14:59:45.326Z,22.07
2018-09-14T15:02:19.931Z,22.18
2018-09-14T15:04:54.991Z,21.30
2018-09-14T15:07:29.461Z,21.54
2018-09-14T15:10:03.942Z,21.54
2018-09-14T15:12:38.720Z,21.44
2018-09-14T15:15:13.317Z,20.90
2018-09-14T15:17:47.890Z,20.87
2018-09-14T15:20:22.551Z,20.77
2018-09-14T15:23:01.223Z,20.68
2018-09-14T15:25:35.985Z,20.88
2018-09-14T15:28:10.483Z,20.90
2018-09-14T15:30:45.631Z,20.50
2018-09-14T15:33:20.251Z,20.22
2018-09-14T15:35:54.903Z,20.48
2018-09-14T15:38:29.513Z,19.99
2018-09-14T15:41:04.165Z,20.33
2018-09-14T15:43:38.683Z,20.30
2018-09-14T15:46:13.213Z,20.31
2018-09-14T15:48:47.772Z,20.20
2018-09-14T15:51:22.422Z,19.78
2018-09-14T15:53:56.913Z,19.39
2018-09-14T15:56:31.771Z,19.75
2018-09-14T15:59:06.508Z,19.79
2018-09-14T16:01:41.293Z,19.67
2018-09-14T16:04:15.822Z,19.36
2018-09-14T16:06:50.435Z,19.09
2018-09-14T16:09:24.949Z,19.12
2018-09-14T16:11:59.511Z,19.03
2018-09-14T16:14:34.101Z,18.83
2018-09-14T16:17:08.628Z,18.82
2018-09-14T16:19:43.304Z,18.70
2018-09-14T16:22:18.040Z,18.71
2018-09-14T16:24:52.653Z,18.48
2018-09-14T16:27:27.185Z,18.40
2018-09-14T16:30:01.706Z,18.36
2018-09-14T16:32:36.672Z,18.34
2018-09-14T16:35:11.116Z,18.35
2018-09-14T16:37:45.754Z,18.31
2018-09-14T16:40:20.301Z,18.23
2018-09-14T16:42:55.860Z,18.20
2018-09-14T16:45:30.766Z,17.97
2018-09-14T16:48:05.516Z,17.78
2018-09-14T16:50:40.142Z,17.74
2018-09-14T16:53:14.812Z,17.55
2018-09-14T16:55:49.315Z,17.54
2018-09-14T16:58:24.902Z,17.42
2018-09-14T17:01:00.729Z,17.37
2018-09-14T17:03:35.429Z,17.32
2018-09-14T17:06:10.260Z,17.28
2018-09-14T17:08:44.796Z,17.20
2018-09-14T17:11:19.781Z,17.12
2018-09-14T17:13:54.886Z,17.08
2018-09-14T17:16:29.436Z,17.11
2018-09-14T17:19:09.513Z,17.09
2018-09-14T17:21:43.917Z,17.05
2018-09-14T17:24:26.836Z,17.01
2018-09-14T17:27:01.566Z,16.85
2018-09-14T17:29:36.296Z,16.72
2018-09-14T17:32:10.852Z,16.55
2018-09-14T17:34:45.662Z,16.43
2018-09-14T17:37:20.280Z,16.25
2018-09-14T17:39:54.996Z,16.08
2018-09-14T17:42:29.705Z,15.89
2018-09-14T17:45:04.405Z,15.76
2018-09-14T17:47:39.415Z,15.63
2018-09-14T17:50:13.898Z,15.57
2018-09-14T17:52:48.492Z,15.48
2018-09-14T17:55:23.419Z,15.43
2018-09-14T17:57:58.061Z,15.38
2018-09-14T18:00:32.526Z,15.31
2018-09-14T18:03:07.517Z,15.21
2018-09-14T18:05:41.993Z,15.11
2018-09-14T18:08:16.691Z,15.02
2018-09-14T18:10:51.589Z,14.99
2018-09-14T18:13:26.233Z,14.97
2018-09-14T18:16:00.835Z,14.89
2018-09-14T18:18:35.414Z,14.93
2018-09-14T18:21:10.217Z,14.85
2018-09-14T18:23:44.969Z,14.76
2018-09-14T18:26:19.770Z,14.65
2018-09-14T18:28:54.600Z,14.54
2018-09-14T18:31:29.208Z,14.46
2018-09-14T18:34:03.920Z,14.37
2018-09-14T18:36:38.940Z,14.32
2018-09-14T18:39:14.112Z,14.20
2018-09-14T18:41:49.116Z,14.17
2018-09-14T18:44:23.801Z,14.17
2018-09-14T18:46:58.490Z,14.18
2018-09-14T18:49:33.516Z,14.21
2018-09-14T18:52:08.182Z,14.24
2018-09-14T18:54:42.893Z,14.25
2018-09-14T18:57:17.491Z,14.24
2018-09-14T18:59:52.073Z,14.25
2018-09-14T19:02:26.772Z,14.16
2018-09-14T19:05:01.369Z,14.10
2018-09-14T19:07:35.928Z,14.00
2018-09-14T19:10:10.684Z,13.92
2018-09-14T19:12:45.250Z,13.85
2018-09-14T19:15:19.799Z,13.80
2018-09-14T19:17:54.343Z,13.75
2018-09-14T19:20:28.757Z,13.71
2018-09-14T19:23:03.227Z,13.68
2018-09-14T19:25:37.872Z,13.63
2018-09-14T19:28:12.740Z,13.62
2018-09-14T19:30:47.449Z,13.67
2018-09-14T19:33:22.000Z,13.74
2018-09-14T19:35:58.103Z,13.78
2018-09-14T19:38:33.083Z,13.80
2018-09-14T19:41:07.741Z,13.79
2018-09-14T19:43:42.481Z,13.74
2018-09-14T19:46:17.143Z,13.69
2018-09-14T19:48:51.701Z,13.63
2018-09-14T19:51:26.306Z,13.60
2018-09-14T19:54:00.896Z,13.52
2018-09-14T19:56:35.762Z,13.47
2018-09-14T19:59:10.177Z,13.42
2018-09-14T20:01:44.799Z,13.39
2018-09-14T20:04:19.293Z,13.38
2018-09-14T20:06:53.895Z,13.36
2018-09-14T20:09:28.523Z,13.35
2018-09-14T20:12:03.068Z,13.28
2018-09-14T20:14:37.815Z,13.27
2018-09-14T20:17:12.477Z,13.20
2018-09-14T20:19:48.819Z,13.17
2018-09-14T20:22:30.940Z,13.20
2018-09-14T20:25:06.714Z,13.18
2018-09-14T20:27:41.420Z,13.21
2018-09-14T20:30:16.441Z,13.26
2018-09-14T20:32:50.975Z,13.31
2018-09-14T20:35:25.613Z,13.37
2018-09-14T20:38:00.961Z,13.40
2018-09-14T20:40:35.609Z,13.39
2018-09-14T20:43:10.129Z,13.44
2018-09-14T20:45:44.644Z,13.43
2018-09-14T20:48:19.248Z,13.46
2018-09-14T20:50:54.653Z,13.50
2018-09-14T20:53:29.285Z,13.54
2018-09-14T20:56:03.792Z,13.64
2018-09-14T20:58:38.332Z,13.70
2018-09-14T21:01:13.019Z,13.75
2018-09-14T21:03:47.711Z,13.79
2018-09-14T21:06:22.215Z,13.80
2018-09-14T21:08:56.836Z,13.79
2018-09-14T21:11:31.736Z,13.80
2018-09-14T21:14:06.327Z,13.79
2018-09-14T21:16:40.861Z,13.80
2018-09-14T21:19:15.640Z,13.81
2018-09-14T21:21:50.209Z,13.82
2018-09-14T21:24:24.910Z,13.80
2018-09-14T21:26:59.605Z,13.83
2018-09-14T21:29:34.216Z,13.86
2018-09-14T21:32:08.699Z,13.94
2018-09-14T21:34:43.193Z,14.01
2018-09-14T21:37:17.702Z,14.13
2018-09-14T21:39:52.261Z,14.13
2018-09-14T21:42:26.842Z,14.11
2018-09-14T21:45:01.681Z,14.12
2018-09-14T21:47:36.529Z,14.09
2018-09-14T21:50:11.075Z,14.16
2018-09-14T21:52:46.006Z,14.17
2018-09-14T21:55:20.610Z,14.22
2018-09-14T21:57:55.196Z,14.25
2018-09-14T22:00:35.089Z,14.24
2018-09-14T22:03:09.723Z,14.26
2018-09-14T22:05:44.476Z,14.25
2018-09-14T22:08:19.718Z,14.21
2018-09-14T22:10:54.339Z,14.23
2018-09-14T22:13:29.232Z,14.24
2018-09-14T22:16:03.698Z,14.23
2018-09-14T22:18:38.244Z,14.19
2018-09-14T22:21:12.796Z,14.18
2018-09-14T22:23:47.449Z,14.24
2018-09-14T22:26:22.392Z,14.25
2018-09-14T22:28:57.061Z,14.28
2018-09-14T22:31:31.606Z,14.28
2018-09-14T22:34:06.122Z,14.25
2018-09-14T22:36:40.629Z,14.22
2018-09-14T22:39:15.515Z,14.23
2018-09-14T22:41:50.578Z,14.23
2018-09-14T22:44:25.249Z,14.24
2018-09-14T22:47:00.125Z,14.23
2018-09-14T22:49:34.692Z,14.16
2018-09-14T22:52:09.264Z,14.13
2018-09-14T22:54:44.049Z,14.07
2018-09-14T22:57:18.647Z,14.08
2018-09-14T22:59:53.553Z,14.05
2018-09-14T23:02:28.213Z,14.02
2018-09-14T23:05:02.865Z,14.00
2018-09-14T23:07:37.323Z,13.98
2018-09-14T23:10:11.888Z,14.00
2018-09-14T23:12:46.966Z,14.00
2018-09-14T23:15:21.573Z,13.94
2018-09-14T23:17:56.473Z,13.93
2018-09-14T23:20:30.996Z,13.92
2018-09-14T23:23:05.464Z,13.90
2018-09-14T23:25:40.001Z,13.85
2018-09-14T23:28:14.597Z,13.82
2018-09-14T23:30:49.273Z,13.84
2018-09-14T23:33:23.829Z,13.84
2018-09-14T23:35:58.282Z,13.85
2018-09-14T23:38:33.053Z,13.85
2018-09-14T23:41:07.928Z,13.85
2018-09-14T23:43:42.553Z,13.83
2018-09-14T23:46:17.140Z,13.82
2018-09-14T23:48:51.648Z,13.75
2018-09-14T23:51:26.445Z,13.70
2018-09-14T23:54:01.301Z,13.59
2018-09-14T23:56:36.163Z,13.45
2018-09-14T23:59:10.729Z,13.28
